• Join FlightAware (Why Join?)
  • Login
  • US Flag 
11:02PM EST


 

Airport Tracker/Info


-or-


 

Live Flight TrackerFlight Track Log ✈ N588P ✈ 10-May-2013 ✈ KICT - KOJC

Flight Track Log - Related Links

Times and Time Zones

All times are in EDT time to prevent confusion due to time zone crossing. See the N588P flight status page for this flight to view local times or setup timezone preferences in your user account.

Time Position Orientation Groundspeed Altitude Reporting Facility
EDT Latitude Longitude Course Direction KTS MPH feet Rate Location/Type
01:48PM 37.6644 -97.4161 35° Northeast 127 146 1,800  Level Kansas City Center
01:49PM 37.6975 -97.3872 35° Northeast 145 167 3,300 1,260 Climbing Kansas City Center
01:50PM 37.6947 -97.3617 98° East 154 177 3,900 1,080 Climbing Kansas City Center
01:50PM 37.6922 -97.3353 97° East 157 181 4,400 1,020 Climbing Kansas City Center
01:51PM 37.6892 -97.3092 98° East 152 175 5,000 1,320 Climbing Kansas City Center
01:51PM 37.6864 -97.2753 96° East 147 169 5,900 1,140 Climbing Kansas City Center
01:52PM 37.6847 -97.2592 97° East 146 168 6,200 960 Climbing Kansas City Center
01:52PM 37.6881 -97.2275 82° East 133 153 7,000 960 Climbing Kansas City Center
01:53PM 37.6919 -97.2175 64° Northeast 128 147 7,200 720 Climbing Kansas City Center
01:53PM 37.7056 -97.1928 55° Northeast 132 152 7,700 720 Climbing Kansas City Center
01:54PM 37.7133 -97.1783 56° Northeast 134 154 8,000 780 Climbing Kansas City Center
01:54PM 37.7267 -97.1525 57° Northeast 137 158 8,500 660 Climbing Kansas City Center
01:55PM 37.7350 -97.1386 53° Northeast 136 157 8,700 360 Climbing Kansas City Center
01:56PM 37.7647 -97.0878 54° Northeast 150 173 9,100 180 Climbing Kansas City Center
01:57PM 37.7922 -97.0386 55° Northeast 169 194 9,100  Level Kansas City Center
01:58PM 37.8214 -96.9875 54° Northeast 177 204 9,100  Level Kansas City Center
01:59PM 37.8500 -96.9356 55° Northeast 180 207 9,100  Level Kansas City Center
02:00PM 37.8789 -96.8850 54° Northeast 178 205 9,100  Level Kansas City Center
02:01PM 37.9075 -96.8347 54° Northeast 178 205 9,100  Level Kansas City Center
02:02PM 37.9428 -96.7725 54° Northeast 180 207 9,100  Level Kansas City Center
02:03PM 37.9717 -96.7208 55° Northeast 180 207 9,100  Level Kansas City Center
02:04PM 37.9992 -96.6700 56° Northeast 176 203 9,100  Level Kansas City Center
02:05PM 38.0286 -96.6178 54° Northeast 181 208 9,100  Level Kansas City Center
02:06PM 38.0578 -96.5658 54° Northeast 181 208 9,100  Level Kansas City Center
02:07PM 38.0869 -96.5131 55° Northeast 182 209 9,100  Level Kansas City Center
02:08PM 38.1214 -96.4503 55° Northeast 181 208 9,100  Level Kansas City Center
02:09PM 38.1506 -96.3978 55° Northeast 182 209 9,100  Level Kansas City Center
02:10PM 38.1794 -96.3456 55° Northeast 181 208 9,100  Level Kansas City Center
02:11PM 38.2114 -96.2900 54° Northeast 177 204 9,100  Level Kansas City Center
02:12PM 38.2386 -96.2392 56° Northeast 180 207 9,100  Level Kansas City Center
02:13PM 38.2714 -96.1808 54° Northeast 181 208 9,100  Level Kansas City Center
02:14PM 38.2983 -96.1289 57° Northeast 183 211 9,100  Level Kansas City Center
02:15PM 38.3239 -96.0631 64° Northeast 184 212 9,100  Level Kansas City Center
02:17PM 38.3478 -96.0069 61° Northeast 188 216 9,100  Level Kansas City Center
02:18PM 38.3694 -95.9503 64° Northeast 186 214 9,100  Level Kansas City Center
02:19PM 38.3956 -95.8856 63° Northeast 185 213 9,100  Level Kansas City Center
02:20PM 38.4189 -95.8289 62° Northeast 187 215 9,100  Level Kansas City Center
02:21PM 38.4447 -95.7639 63° Northeast 186 214 9,100  Level Kansas City Center
02:22PM 38.4672 -95.7081 63° Northeast 186 214 9,100 -60 Level Kansas City Center
02:23PM 38.4942 -95.6433 62° Northeast 186 214 9,000 -240 Descending Kansas City Center
02:24PM 38.5147 -95.5872 65° Northeast 183 211 8,700 -420 Descending Kansas City Center
02:25PM 38.5431 -95.5175 63° Northeast 196 226 8,200 -540 Descending Kansas City Center
02:26PM 38.5664 -95.4600 63° Northeast 191 220 7,700 -540 Descending Kansas City Center
02:27PM 38.5936 -95.3906 63° Northeast 194 223 7,100 -540 Descending Kansas City Center
02:28PM 38.6178 -95.3294 63° Northeast 200 230 6,600 -540 Descending Kansas City Center
02:29PM 38.6453 -95.2578 64° Northeast 202 232 6,000 -600 Descending Kansas City Center
02:30PM 38.6694 -95.1967 63° Northeast 202 232 5,400 -480 Descending Kansas City Center
02:31PM 38.6739 -95.1261 85° East 183 211 5,100 -240 Descending Kansas City Center
02:32PM 38.6708 -95.0622 93° East 186 214 4,900 -360 Descending Kansas City Center
02:33PM 38.6675 -94.9872 93° East 191 220 4,400 -420 Descending Kansas City Center
02:34PM 38.6639 -94.9253 94° East 185 213 4,100 -300 Descending Kansas City Center
02:35PM 38.6600 -94.8586 94° East 172 198 3,900 -360 Descending Kansas City Center
02:36PM 38.6586 -94.8083 92° East 153 176 3,400 -540 Descending Kansas City Center
02:37PM 38.6608 -94.7503 87° East 147 169 2,900 -300 Descending Kansas City Center
02:38PM 38.6883 -94.7389 18° North 116 133 2,900  Level Kansas City Center
02:39PM 38.7211 -94.7378 North 107 123 2,900  Level Kansas City Center
02:40PM 38.7489 -94.7367 North 105 121 2,900 -180 Level Kansas City Center
02:41PM 38.7744 -94.7378 358° North 86 99 2,600 -480 Descending Kansas City Center
02:42PM 38.8022 -94.7367 North 102 117 2,000 -600 Descending Kansas City Center
02:43PM 38.8289 -94.7386 357° North 103 119 1,400 -600 Descending Kansas City Center